Terminal Aerodrome Forecast
Issued by NWS New Orleans/Baton Rouge, LA

Home | Current Version | Previous Version | Text Only | Print | Product List | Glossary On
Versions: 1 2 3 4 5 6 7 8 9 10 11 12 13 14 15 16 17 18 19 20 21 22 23 24 25 26
197
FTUS44 KLIX 291140
TAFNEW
TAF
KNEW 291140Z 2912/3012 21003KT P6SM FEW018 SCT250
     FM291600 VRB03KT P6SM VCSH SCT025 BKN120
     FM291900 22007KT P6SM VCTS SCT030CB BKN150
     FM300000 17008KT P6SM BKN250
     FM301000 23005KT P6SM FEW090 SCT250=

USA.gov is the U.S. government's official web portal to all federal, state and local government web resources and services.